createdAt,value
2018-08-18T00:00:17.871Z,5.50
2018-08-18T00:02:46.492Z,5.50
2018-08-18T00:05:16.013Z,5.57
2018-08-18T00:07:44.756Z,5.80
2018-08-18T00:10:15.644Z,5.47
2018-08-18T00:12:45.147Z,5.63
2018-08-18T00:15:13.676Z,5.57
2018-08-18T00:17:42.504Z,5.33
2018-08-18T00:20:18.993Z,5.00
2018-08-18T00:22:48.993Z,5.97
2018-08-18T00:25:17.601Z,5.57
2018-08-18T00:27:46.177Z,6.27
2018-08-18T00:30:20.147Z,5.27
2018-08-18T00:32:48.705Z,5.70
2018-08-18T00:35:17.271Z,6.60
2018-08-18T00:37:45.935Z,5.77
2018-08-18T00:40:14.596Z,6.20
2018-08-18T00:42:43.125Z,6.30
2018-08-18T00:45:12.779Z,6.90
2018-08-18T00:47:41.487Z,6.47
2018-08-18T00:50:11.245Z,6.37
2018-08-18T00:52:39.949Z,7.43
2018-08-18T00:55:08.717Z,8.57
2018-08-18T00:57:37.256Z,7.80
2018-08-18T01:00:06.668Z,7.77
2018-08-18T01:02:35.390Z,8.47
2018-08-18T01:05:04.633Z,8.80
2018-08-18T01:07:33.506Z,9.73
2018-08-18T01:10:03.344Z,11.13
2018-08-18T01:12:32.034Z,8.20
2018-08-18T01:15:00.676Z,8.23
2018-08-18T01:17:29.039Z,9.77
2018-08-18T01:19:58.611Z,8.30
2018-08-18T01:22:27.915Z,9.33
2018-08-18T01:24:57.468Z,8.50
2018-08-18T01:27:26.230Z,9.73
2018-08-18T01:30:00.068Z,8.17
2018-08-18T01:32:30.287Z,8.20
2018-08-18T01:34:58.855Z,8.53
2018-08-18T01:37:27.440Z,9.13
2018-08-18T01:39:56.088Z,10.53
2018-08-18T01:42:24.751Z,9.57
2018-08-18T01:44:54.376Z,9.23
2018-08-18T01:47:23.179Z,10.17
2018-08-18T01:49:51.648Z,12.03
2018-08-18T01:52:24.135Z,10.20
2018-08-18T01:54:52.753Z,11.80
2018-08-18T01:57:22.490Z,10.10
2018-08-18T01:59:51.476Z,10.70
2018-08-18T02:02:24.314Z,9.97
2018-08-18T02:04:53.792Z,11.97
2018-08-18T02:07:28.093Z,10.67
2018-08-18T02:09:57.041Z,11.37
2018-08-18T02:12:26.446Z,12.43
2018-08-18T02:14:55.612Z,15.27
2018-08-18T02:17:30.297Z,12.97
2018-08-18T02:19:59.290Z,11.60
2018-08-18T02:22:28.744Z,10.63
2018-08-18T02:24:57.300Z,11.07
2018-08-18T02:27:26.240Z,10.93
2018-08-18T02:30:06.688Z,12.93
2018-08-18T02:32:37.300Z,13.87
2018-08-18T02:35:06.435Z,12.87
2018-08-18T02:37:35.176Z,14.53
2018-08-18T02:40:04.998Z,12.20
2018-08-18T02:42:33.558Z,17.23
2018-08-18T02:45:02.095Z,12.90
2018-08-18T02:47:30.601Z,13.67
2018-08-18T02:50:01.225Z,15.93
2018-08-18T02:52:34.261Z,14.50
2018-08-18T02:55:06.039Z,12.33
2018-08-18T02:57:38.987Z,13.97
2018-08-18T03:00:09.812Z,14.10
2018-08-18T03:02:38.406Z,13.23
2018-08-18T03:05:06.936Z,11.23
2018-08-18T03:07:39.162Z,10.73
2018-08-18T03:10:15.769Z,10.37
2018-08-18T03:12:44.913Z,9.30
2018-08-18T03:15:34.059Z,9.30
2018-08-18T03:18:02.581Z,9.57
2018-08-18T03:20:31.283Z,9.50
2018-08-18T03:23:00.009Z,9.67
2018-08-18T03:25:39.764Z,10.63
2018-08-18T03:28:08.375Z,11.87
2018-08-18T03:30:37.491Z,11.63
2018-08-18T03:33:06.317Z,13.73
2018-08-18T03:35:35.216Z,11.67
2018-08-18T03:38:03.791Z,11.90
2018-08-18T03:40:32.396Z,11.80
2018-08-18T03:43:01.711Z,12.20
2018-08-18T03:45:30.244Z,13.23
2018-08-18T03:47:58.880Z,14.23
2018-08-18T03:50:41.927Z,13.67
2018-08-18T03:53:11.298Z,14.77
2018-08-18T03:55:40.528Z,13.40
2018-08-18T03:58:09.413Z,17.70
2018-08-18T04:00:38.385Z,15.03
2018-08-18T04:03:06.981Z,16.53
2018-08-18T04:05:37.586Z,15.83
2018-08-18T04:08:06.240Z,16.33
2018-08-18T04:10:34.782Z,16.20
2018-08-18T04:13:03.475Z,16.07
2018-08-18T04:15:31.960Z,17.10
2018-08-18T04:18:04.688Z,19.73
2018-08-18T04:20:33.390Z,22.47
2018-08-18T04:23:01.916Z,21.47
2018-08-18T04:25:30.628Z,21.60
2018-08-18T04:27:59.452Z,20.27
2018-08-18T04:30:27.948Z,19.20
2018-08-18T04:32:59.840Z,18.50
2018-08-18T04:35:29.664Z,18.40
2018-08-18T04:37:59.206Z,19.80
2018-08-18T04:40:28.615Z,20.83
2018-08-18T04:42:58.585Z,17.90
2018-08-18T04:45:27.909Z,18.13
2018-08-18T04:47:56.468Z,17.47
2018-08-18T04:50:25.186Z,22.57
2018-08-18T04:52:54.682Z,18.97
2018-08-18T04:55:23.436Z,17.97
2018-08-18T04:57:52.151Z,16.63
2018-08-18T05:00:27.402Z,19.57
2018-08-18T05:02:57.717Z,16.23
2018-08-18T05:05:29.788Z,19.03
2018-08-18T05:07:59.601Z,17.87
2018-08-18T05:10:28.751Z,18.07
2018-08-18T05:12:57.381Z,18.00
2018-08-18T05:15:25.950Z,19.13
2018-08-18T05:17:54.467Z,18.50
2018-08-18T05:20:25.908Z,18.30
2018-08-18T05:22:55.883Z,18.53
2018-08-18T05:25:30.044Z,20.17
2018-08-18T05:27:58.936Z,19.33
2018-08-18T05:30:27.470Z,16.90
2018-08-18T05:32:56.165Z,18.57
2018-08-18T05:35:24.823Z,17.60
2018-08-18T05:37:53.432Z,17.87
2018-08-18T05:40:22.600Z,22.83
2018-08-18T05:42:51.256Z,18.23
2018-08-18T05:45:32.876Z,21.73
2018-08-18T05:48:01.596Z,18.40
2018-08-18T05:50:30.901Z,22.13
2018-08-18T05:53:24.289Z,18.30
2018-08-18T05:55:53.266Z,17.03
2018-08-18T05:58:21.904Z,19.70
2018-08-18T06:00:56.459Z,20.97
2018-08-18T06:03:25.749Z,19.47
2018-08-18T06:05:54.701Z,21.07
2018-08-18T06:08:23.217Z,21.23
2018-08-18T06:10:52.064Z,21.10
2018-08-18T06:13:21.572Z,17.80
2018-08-18T06:16:06.260Z,22.63
2018-08-18T06:18:36.603Z,21.50
2018-08-18T06:21:05.988Z,19.87
2018-08-18T06:23:35.002Z,18.57
2018-08-18T06:26:03.974Z,20.33
2018-08-18T06:28:33.265Z,18.70
2018-08-18T06:31:02.036Z,18.17
2018-08-18T06:33:30.722Z,18.37
2018-08-18T06:35:59.292Z,19.30
2018-08-18T06:38:28.519Z,17.57
2018-08-18T06:40:58.421Z,19.60
2018-08-18T06:43:28.012Z,20.63
2018-08-18T06:45:56.651Z,19.73
2018-08-18T06:48:25.365Z,26.90
2018-08-18T06:50:53.899Z,23.47
2018-08-18T06:53:22.636Z,25.07
2018-08-18T06:55:51.223Z,23.50
2018-08-18T06:58:20.001Z,26.90
2018-08-18T07:00:48.638Z,26.67
2018-08-18T07:03:28.492Z,27.83
2018-08-18T07:05:57.153Z,29.00
2018-08-18T07:08:25.684Z,27.03
2018-08-18T07:10:54.295Z,28.83
2018-08-18T07:13:22.804Z,33.80
2018-08-18T07:15:51.644Z,28.53
2018-08-18T07:18:20.244Z,34.77
2018-08-18T07:20:48.807Z,28.93
2018-08-18T07:23:17.710Z,28.70
2018-08-18T07:26:01.930Z,31.73
2018-08-18T07:28:30.646Z,28.67
2018-08-18T07:30:59.424Z,29.60
2018-08-18T07:33:28.231Z,30.93
2018-08-18T07:35:56.978Z,29.87
2018-08-18T07:38:25.775Z,31.77
2018-08-18T07:40:55.371Z,30.53
2018-08-18T07:43:26.152Z,27.97
2018-08-18T07:45:55.933Z,28.93
2018-08-18T07:48:25.120Z,30.40
2018-08-18T07:50:53.858Z,27.83
2018-08-18T07:53:23.515Z,28.37
2018-08-18T07:55:52.860Z,26.67
2018-08-18T07:58:23.002Z,28.57
2018-08-18T08:00:52.279Z,26.37
2018-08-18T08:03:21.553Z,27.20
2018-08-18T08:05:50.217Z,26.20
2018-08-18T08:08:18.833Z,25.93
2018-08-18T08:10:47.317Z,27.77
2018-08-18T08:13:16.135Z,23.47
2018-08-18T08:15:45.560Z,28.47
2018-08-18T08:18:15.346Z,24.87
2018-08-18T08:20:43.966Z,26.30
2018-08-18T08:23:12.605Z,24.93
2018-08-18T08:25:41.428Z,24.40
2018-08-18T08:28:10.546Z,25.73
2018-08-18T08:30:39.132Z,22.43
2018-08-18T08:33:08.048Z,24.93
2018-08-18T08:35:38.156Z,20.93
2018-08-18T08:38:06.756Z,20.27
2018-08-18T08:40:35.362Z,19.97
2018-08-18T08:43:04.124Z,18.47
2018-08-18T08:45:33.454Z,18.63
2018-08-18T08:48:02.240Z,17.47
2018-08-18T08:50:30.812Z,15.37
2018-08-18T08:53:00.119Z,16.57
2018-08-18T08:55:29.512Z,16.90
2018-08-18T08:57:58.241Z,14.97
2018-08-18T09:00:26.944Z,16.73
2018-08-18T09:02:55.843Z,14.70
2018-08-18T09:05:25.175Z,16.60
2018-08-18T09:07:53.804Z,13.40
2018-08-18T09:10:22.566Z,14.60
2018-08-18T09:12:51.815Z,13.87
2018-08-18T09:15:20.609Z,13.23
2018-08-18T09:17:49.174Z,12.67
2018-08-18T09:20:19.433Z,12.57
2018-08-18T09:22:57.468Z,12.97
2018-08-18T09:25:28.539Z,12.90
2018-08-18T09:27:58.342Z,14.60
2018-08-18T09:30:28.067Z,14.33
2018-08-18T09:33:04.376Z,14.23
2018-08-18T09:35:58.845Z,12.57
2018-08-18T09:38:27.539Z,13.13
2018-08-18T09:40:56.128Z,13.10
2018-08-18T09:43:25.791Z,12.57
2018-08-18T09:45:55.843Z,13.13
2018-08-18T09:48:25.546Z,12.77
2018-08-18T09:50:55.843Z,12.73
2018-08-18T09:53:24.907Z,10.30
2018-08-18T09:55:53.677Z,10.13
2018-08-18T09:58:22.689Z,9.90
2018-08-18T10:00:51.416Z,10.07
2018-08-18T10:03:20.247Z,10.13
2018-08-18T10:05:49.491Z,10.10
2018-08-18T10:08:18.417Z,11.30
2018-08-18T10:10:46.934Z,10.70
2018-08-18T10:13:15.557Z,11.17
2018-08-18T10:15:44.129Z,9.97
2018-08-18T10:18:12.737Z,9.53
2018-08-18T10:20:46.524Z,9.40
2018-08-18T10:23:15.263Z,9.27
2018-08-18T10:25:44.024Z,9.67
2018-08-18T10:28:13.314Z,9.93
2018-08-18T10:30:42.204Z,8.87
2018-08-18T10:33:11.575Z,8.77
2018-08-18T10:35:40.252Z,10.70
2018-08-18T10:38:08.992Z,8.27
2018-08-18T10:40:38.328Z,9.03
2018-08-18T10:43:06.996Z,8.60
2018-08-18T10:45:35.730Z,8.47
2018-08-18T10:48:04.614Z,8.73
2018-08-18T10:50:44.707Z,9.00
2018-08-18T10:53:13.401Z,8.53
2018-08-18T10:55:42.146Z,8.63
2018-08-18T10:58:10.868Z,7.43
2018-08-18T11:00:39.616Z,7.83
2018-08-18T11:03:09.088Z,7.60
2018-08-18T11:05:38.560Z,7.27
2018-08-18T11:08:09.690Z,8.10
2018-08-18T11:10:39.793Z,7.40
2018-08-18T11:13:08.653Z,7.80
2018-08-18T11:15:37.273Z,9.97
2018-08-18T11:18:05.927Z,6.93
2018-08-18T11:20:35.665Z,6.33
2018-08-18T11:23:12.383Z,8.63
2018-08-18T11:25:57.022Z,7.27
2018-08-18T11:28:25.839Z,7.43
2018-08-18T11:30:55.099Z,6.87
2018-08-18T11:33:37.187Z,6.80
2018-08-18T11:36:06.940Z,7.47
2018-08-18T11:38:35.683Z,6.17
2018-08-18T11:41:04.385Z,6.27
2018-08-18T11:43:35.728Z,6.63
2018-08-18T11:46:04.372Z,6.30
2018-08-18T11:48:33.853Z,6.97
2018-08-18T11:51:02.516Z,6.17
2018-08-18T11:53:31.023Z,8.80
2018-08-18T11:55:59.515Z,5.90
2018-08-18T11:58:28.237Z,6.63
2018-08-18T12:01:00.464Z,6.23
2018-08-18T12:03:33.569Z,5.83
2018-08-18T12:06:03.699Z,6.43
2018-08-18T12:08:33.960Z,6.93
2018-08-18T12:11:05.324Z,6.17
2018-08-18T12:13:39.472Z,6.37
2018-08-18T12:16:11.447Z,6.80
2018-08-18T12:18:41.744Z,5.63
2018-08-18T12:21:10.784Z,6.40
2018-08-18T12:23:41.915Z,6.93
2018-08-18T12:26:14.199Z,5.70
2018-08-18T12:28:47.122Z,5.57
2018-08-18T12:31:19.329Z,6.43
2018-08-18T12:33:48.087Z,5.87
2018-08-18T12:36:16.797Z,6.60
2018-08-18T12:38:48.227Z,6.47
2018-08-18T12:41:17.015Z,6.67
2018-08-18T12:43:46.691Z,5.43
2018-08-18T12:46:16.861Z,9.40
2018-08-18T12:48:46.704Z,5.47
2018-08-18T12:51:16.626Z,5.40
2018-08-18T12:53:49.654Z,5.30
2018-08-18T12:56:20.409Z,6.07
2018-08-18T12:58:49.399Z,5.50
2018-08-18T13:01:34.806Z,5.10
2018-08-18T13:04:04.917Z,5.80
2018-08-18T13:06:38.760Z,5.53
2018-08-18T13:09:09.072Z,5.30
2018-08-18T13:11:38.049Z,5.90
2018-08-18T13:14:06.718Z,5.80
2018-08-18T13:16:36.388Z,5.50
2018-08-18T13:19:05.643Z,5.40
2018-08-18T13:21:34.343Z,5.73
2018-08-18T13:24:04.431Z,4.80
2018-08-18T13:26:33.154Z,6.57
2018-08-18T13:29:03.108Z,6.10
2018-08-18T13:31:36.870Z,6.00
2018-08-18T13:34:05.680Z,7.87
2018-08-18T13:36:35.495Z,6.93
2018-08-18T13:39:05.783Z,6.40
2018-08-18T13:41:34.400Z,4.77
2018-08-18T13:44:03.041Z,5.07
2018-08-18T13:46:44.378Z,5.50
2018-08-18T13:49:12.884Z,4.90
2018-08-18T13:51:41.437Z,5.03
2018-08-18T13:54:10.329Z,6.40
2018-08-18T13:56:39.315Z,5.47
2018-08-18T13:59:08.029Z,5.23
2018-08-18T14:01:45.832Z,5.00
2018-08-18T14:04:20.890Z,5.40
2018-08-18T14:06:54.293Z,4.60
2018-08-18T14:09:22.987Z,6.43
2018-08-18T14:11:58.236Z,5.40
2018-08-18T14:14:27.523Z,5.07
2018-08-18T14:16:57.119Z,10.83
2018-08-18T14:19:25.659Z,7.13
2018-08-18T14:21:59.669Z,5.60
2018-08-18T14:24:33.430Z,5.17
2018-08-18T14:27:03.434Z,6.47
2018-08-18T14:29:33.288Z,6.70
2018-08-18T14:32:02.647Z,6.07
2018-08-18T14:34:32.197Z,5.27
2018-08-18T14:37:15.548Z,5.73
2018-08-18T14:39:44.797Z,5.40
2018-08-18T14:42:13.665Z,4.87
2018-08-18T14:44:42.334Z,5.33
2018-08-18T14:47:10.871Z,5.73
2018-08-18T14:49:39.407Z,5.50
2018-08-18T14:52:08.200Z,5.10
2018-08-18T14:54:39.638Z,5.37
2018-08-18T14:57:09.036Z,5.43
2018-08-18T14:59:38.506Z,5.70
2018-08-18T15:02:08.159Z,5.83
2018-08-18T15:04:36.926Z,4.83
2018-08-18T15:07:05.663Z,4.93
2018-08-18T15:09:37.577Z,5.30
2018-08-18T15:12:06.805Z,5.53
2018-08-18T15:14:36.179Z,5.57
2018-08-18T15:17:05.187Z,5.67
2018-08-18T15:19:34.178Z,5.20
2018-08-18T15:22:09.047Z,5.20
2018-08-18T15:24:37.967Z,6.63
2018-08-18T15:27:06.894Z,5.17
2018-08-18T15:29:35.606Z,5.70
2018-08-18T15:32:04.868Z,5.63
2018-08-18T15:34:33.612Z,6.20
2018-08-18T15:37:02.369Z,4.77
2018-08-18T15:39:31.153Z,6.07
2018-08-18T15:42:00.886Z,5.40
2018-08-18T15:44:29.480Z,5.47
2018-08-18T15:46:58.603Z,6.37
2018-08-18T15:49:27.318Z,6.83
2018-08-18T15:51:55.962Z,5.60
2018-08-18T15:54:25.918Z,8.67
2018-08-18T15:56:54.416Z,5.00
2018-08-18T15:59:23.112Z,5.33
2018-08-18T16:01:51.728Z,4.97
2018-08-18T16:04:20.648Z,6.57
2018-08-18T16:06:49.205Z,4.87
2018-08-18T16:09:17.936Z,4.80
2018-08-18T16:11:46.594Z,6.83
2018-08-18T16:14:15.281Z,6.30
2018-08-18T16:19:39.840Z,4.83
2018-08-18T16:22:08.917Z,6.83
2018-08-18T16:24:40.828Z,5.13
2018-08-18T16:27:29.369Z,4.63
2018-08-18T16:30:03.409Z,4.90
2018-08-18T16:32:32.640Z,5.30
2018-08-18T16:35:07.998Z,4.93
2018-08-18T16:37:39.828Z,6.27
2018-08-18T16:40:24.436Z,5.40
2018-08-18T16:42:54.125Z,5.97
2018-08-18T16:45:23.059Z,7.40
2018-08-18T16:47:52.863Z,6.03
2018-08-18T16:50:22.341Z,5.30
2018-08-18T16:52:51.112Z,6.13
2018-08-18T16:55:19.987Z,6.10
2018-08-18T16:57:53.795Z,5.90
2018-08-18T17:00:22.790Z,7.17
2018-08-18T17:02:51.889Z,5.97
2018-08-18T17:05:20.879Z,5.40
2018-08-18T17:07:50.005Z,5.97
2018-08-18T17:10:18.998Z,5.50
2018-08-18T17:12:48.083Z,6.60
2018-08-18T17:15:17.040Z,5.43
2018-08-18T17:17:46.082Z,5.47
2018-08-18T17:20:15.161Z,4.90
2018-08-18T17:22:45.274Z,5.93
2018-08-18T17:25:14.259Z,5.73
2018-08-18T17:27:43.976Z,5.63
2018-08-18T17:30:13.240Z,7.40
2018-08-18T17:32:42.245Z,5.37
2018-08-18T17:35:11.517Z,5.47
2018-08-18T17:37:40.470Z,6.90
2018-08-18T17:40:10.252Z,6.00
2018-08-18T17:42:40.424Z,5.90
2018-08-18T17:45:09.312Z,6.67
2018-08-18T17:47:42.503Z,6.80
2018-08-18T17:50:11.635Z,5.80
2018-08-18T17:52:40.619Z,5.40
2018-08-18T17:55:15.574Z,6.03
2018-08-18T17:57:44.556Z,5.97
2018-08-18T18:00:17.676Z,5.70
2018-08-18T18:02:52.407Z,78.97
2018-08-18T18:05:23.879Z,30.97
2018-08-18T18:07:57.078Z,14.73
2018-08-18T18:10:28.583Z,16.50
2018-08-18T18:12:57.481Z,15.57
2018-08-18T18:15:35.358Z,19.73
2018-08-18T18:18:04.678Z,7.13
2018-08-18T18:20:34.847Z,7.73
2018-08-18T18:23:03.912Z,8.97
2018-08-18T18:25:32.671Z,7.00
2018-08-18T18:28:02.148Z,7.77
2018-08-18T18:30:31.184Z,9.40
2018-08-18T18:33:00.787Z,7.70
2018-08-18T18:35:29.918Z,7.67
2018-08-18T18:38:00.943Z,7.73
2018-08-18T18:40:34.149Z,8.33
2018-08-18T18:43:03.052Z,9.10
2018-08-18T18:45:33.124Z,7.17
2018-08-18T18:48:02.206Z,7.37
2018-08-18T18:50:32.090Z,8.20
2018-08-18T18:53:01.311Z,7.50
2018-08-18T18:55:30.584Z,8.10
2018-08-18T18:58:09.486Z,8.40
2018-08-18T19:00:39.743Z,7.77
2018-08-18T19:03:10.442Z,7.50
2018-08-18T19:05:40.461Z,7.93
2018-08-18T19:08:11.886Z,7.63
2018-08-18T19:10:40.905Z,10.17
2018-08-18T19:13:10.600Z,7.57
2018-08-18T19:15:39.788Z,6.80
2018-08-18T19:18:10.016Z,7.30
2018-08-18T19:20:39.000Z,8.27
2018-08-18T19:23:18.953Z,7.33
2018-08-18T19:25:49.307Z,9.27
2018-08-18T19:28:20.582Z,9.77
2018-08-18T19:30:49.788Z,8.00
2018-08-18T19:33:19.105Z,8.20
2018-08-18T19:35:49.926Z,9.80
2018-08-18T19:38:20.475Z,8.10
2018-08-18T19:40:51.569Z,7.80
2018-08-18T19:43:21.803Z,8.53
2018-08-18T19:45:51.347Z,8.10
2018-08-18T19:48:24.859Z,8.80
2018-08-18T19:50:58.966Z,9.10
2018-08-18T19:53:32.324Z,8.50
2018-08-18T19:56:03.720Z,7.70
2018-08-18T19:58:32.709Z,8.83
2018-08-18T20:01:01.674Z,8.17
2018-08-18T20:03:30.880Z,7.60
2018-08-18T20:06:01.121Z,7.83
2018-08-18T20:08:30.367Z,8.13
2018-08-18T20:11:01.908Z,9.13
2018-08-18T20:13:32.156Z,10.80
2018-08-18T20:16:02.825Z,9.90
2018-08-18T20:18:33.491Z,8.97
2018-08-18T20:21:02.458Z,9.37
2018-08-18T20:23:31.396Z,8.33
2018-08-18T20:26:01.454Z,9.23
2018-08-18T20:28:30.922Z,8.07
2018-08-18T20:31:08.690Z,7.23
2018-08-18T20:33:37.621Z,8.63
2018-08-18T20:36:06.702Z,8.13
2018-08-18T20:38:41.836Z,8.03
2018-08-18T20:41:10.723Z,10.30
2018-08-18T20:43:40.041Z,8.17
2018-08-18T20:46:09.192Z,8.77
2018-08-18T20:48:38.214Z,11.17
2018-08-18T20:51:07.761Z,8.23
2018-08-18T20:53:36.721Z,7.83
2018-08-18T20:56:06.372Z,11.33
2018-08-18T20:58:35.961Z,7.90
2018-08-18T21:01:04.932Z,8.23
2018-08-18T21:03:47.091Z,7.67
2018-08-18T21:06:17.840Z,8.87
2018-08-18T21:08:46.955Z,8.60
2018-08-18T21:11:16.219Z,9.07
2018-08-18T21:13:47.781Z,7.93
2018-08-18T21:16:17.277Z,8.60
2018-08-18T21:18:46.216Z,8.90
2018-08-18T21:21:35.359Z,7.80
2018-08-18T21:24:04.622Z,8.23
2018-08-18T21:26:34.212Z,7.83
2018-08-18T21:29:03.226Z,12.23
2018-08-18T21:31:33.102Z,8.67
2018-08-18T21:34:03.081Z,8.13
2018-08-18T21:36:32.326Z,8.03
2018-08-18T21:39:05.113Z,8.87
2018-08-18T21:41:35.788Z,9.10
2018-08-18T21:44:07.133Z,8.60
2018-08-18T21:46:35.980Z,8.57
2018-08-18T21:49:04.805Z,9.10
2018-08-18T21:51:33.972Z,8.53
2018-08-18T21:54:03.320Z,8.77
2018-08-18T21:56:36.546Z,9.23
2018-08-18T21:59:06.723Z,8.40
2018-08-18T22:01:35.849Z,9.57
2018-08-18T22:04:05.111Z,8.97
2018-08-18T22:06:34.234Z,8.50
2018-08-18T22:09:15.228Z,8.53
2018-08-18T22:11:44.167Z,8.33
2018-08-18T22:14:13.961Z,8.37
2018-08-18T22:16:48.146Z,10.17
2018-08-18T22:19:20.804Z,8.70
2018-08-18T22:21:49.644Z,8.63
2018-08-18T22:24:18.460Z,8.50
2018-08-18T22:26:47.365Z,8.90
2018-08-18T22:29:16.313Z,10.33
2018-08-18T22:31:45.055Z,9.43
2018-08-18T22:34:14.198Z,9.07
2018-08-18T22:36:43.064Z,8.47
2018-08-18T22:39:12.183Z,8.40
2018-08-18T22:41:42.434Z,9.53
2018-08-18T22:44:11.195Z,9.13
2018-08-18T22:46:40.189Z,9.43
2018-08-18T22:49:09.104Z,9.27
2018-08-18T22:51:37.966Z,9.10
2018-08-18T22:54:06.909Z,9.10
2018-08-18T22:56:36.229Z,10.27
2018-08-18T22:59:06.887Z,9.23
2018-08-18T23:01:36.998Z,8.70
2018-08-18T23:04:18.725Z,9.50
2018-08-18T23:06:47.600Z,9.40
2018-08-18T23:09:16.314Z,9.50
2018-08-18T23:11:45.123Z,8.67
2018-08-18T23:14:13.900Z,10.40
2018-08-18T23:16:49.313Z,9.57
2018-08-18T23:19:18.864Z,11.07
2018-08-18T23:21:47.806Z,10.17
2018-08-18T23:24:27.437Z,9.97
2018-08-18T23:26:56.880Z,9.60
2018-08-18T23:29:25.728Z,9.53
2018-08-18T23:31:54.590Z,10.13
2018-08-18T23:34:23.920Z,10.00
2018-08-18T23:36:53.017Z,9.07
2018-08-18T23:39:21.881Z,9.97
2018-08-18T23:41:59.764Z,9.90
2018-08-18T23:44:29.404Z,9.63
2018-08-18T23:46:58.829Z,9.67
2018-08-18T23:49:27.681Z,9.70
2018-08-18T23:51:57.030Z,9.73
2018-08-18T23:54:25.767Z,10.17
2018-08-18T23:56:54.601Z,9.57
2018-08-18T23:59:24.180Z,9.43
